createdAt,value
2023-01-12T00:01:53.023Z,98092.84
2023-01-12T00:04:20.349Z,98098.06
2023-01-12T00:06:48.707Z,98114.22
2023-01-12T00:09:15.681Z,98115.16
2023-01-12T00:11:42.758Z,98109.22
2023-01-12T00:14:09.826Z,98113.34
2023-01-12T00:16:43.467Z,98118.84
2023-01-12T00:19:19.121Z,98104.72
2023-01-12T00:21:51.874Z,98112.78
2023-01-12T00:24:19.952Z,98097.81
2023-01-12T00:26:48.393Z,98087.00
2023-01-12T00:29:16.484Z,98091.16
2023-01-12T00:31:43.545Z,98096.63
2023-01-12T00:34:10.423Z,98075.50
2023-01-12T00:36:37.325Z,98068.28
2023-01-12T00:39:04.323Z,98076.31
2023-01-12T00:41:49.663Z,98064.84
2023-01-12T00:44:35.569Z,98060.31
2023-01-12T00:47:02.671Z,98059.47
2023-01-12T00:49:29.578Z,98071.34
2023-01-12T00:51:56.413Z,98066.84
2023-01-12T00:54:23.257Z,98059.13
2023-01-12T00:56:50.229Z,98058.94
2023-01-12T00:59:17.182Z,98050.69
2023-01-12T01:01:44.218Z,98046.31
2023-01-12T01:04:11.207Z,98046.31
2023-01-12T01:06:39.414Z,98044.44
2023-01-12T01:09:07.446Z,98049.66
2023-01-12T01:11:35.383Z,98039.34
2023-01-12T01:14:03.280Z,98028.44
2023-01-12T01:16:31.360Z,98032.44
2023-01-12T01:18:59.442Z,98039.69
2023-01-12T01:21:27.260Z,98059.25
2023-01-12T01:23:54.369Z,98055.81
2023-01-12T01:26:23.558Z,98049.06
2023-01-12T01:28:51.242Z,98050.13
2023-01-12T01:31:22.509Z,98037.78
2023-01-12T01:33:50.954Z,98038.41
2023-01-12T01:36:19.001Z,98038.41
2023-01-12T01:38:47.303Z,98038.41
2023-01-12T01:41:23.339Z,98043.63
2023-01-12T01:44:02.141Z,98036.34
2023-01-12T01:46:50.499Z,98039.09
2023-01-12T01:49:49.771Z,98033.53
2023-01-12T01:52:26.058Z,98037.09
2023-01-12T01:55:11.653Z,98040.88
2023-01-12T01:57:47.721Z,98047.19
2023-01-12T02:00:15.050Z,98043.72
2023-01-12T02:02:45.634Z,98052.13
2023-01-12T02:05:16.327Z,98050.69
2023-01-12T02:07:43.328Z,98040.38
2023-01-12T02:10:10.991Z,98043.09
2023-01-12T02:12:56.885Z,98048.06
2023-01-12T02:15:47.234Z,98034.53
2023-01-12T02:18:52.581Z,98042.38
2023-01-12T02:21:25.238Z,98041.78
2023-01-12T02:24:06.844Z,98046.75
2023-01-12T02:27:00.665Z,98054.34
2023-01-12T02:29:27.517Z,98050.91
2023-01-12T02:32:15.560Z,98047.25
2023-01-12T02:35:14.610Z,98046.03
2023-01-12T02:37:50.370Z,98046.03
2023-01-12T02:40:29.932Z,98052.78
2023-01-12T02:43:09.705Z,98057.19
2023-01-12T02:45:54.880Z,98050.78
2023-01-12T02:48:51.613Z,98040.50
2023-01-12T02:51:45.897Z,98041.31
2023-01-12T02:54:16.156Z,98038.09
2023-01-12T02:57:09.345Z,98028.63
2023-01-12T02:59:42.066Z,98037.38
2023-01-12T03:02:11.392Z,98046.03
2023-01-12T03:04:39.756Z,98046.03
2023-01-12T03:07:26.807Z,98047.94
2023-01-12T03:09:59.155Z,98051.47
2023-01-12T03:12:31.666Z,98045.66
2023-01-12T03:15:02.569Z,98046.50
2023-01-12T03:17:38.225Z,98036.69
2023-01-12T03:20:14.291Z,98040.13
2023-01-12T03:22:42.328Z,98047.00
2023-01-12T03:25:14.374Z,98035.81
2023-01-12T03:27:46.374Z,98032.41
2023-01-12T03:30:24.273Z,98045.53
2023-01-12T03:32:51.847Z,98048.16
2023-01-12T03:35:24.382Z,98039.06
2023-01-12T03:37:58.524Z,98037.72
2023-01-12T03:40:39.508Z,98029.78
2023-01-12T03:43:14.922Z,98031.91
2023-01-12T03:45:50.062Z,98039.84
2023-01-12T03:48:34.118Z,98036.28
2023-01-12T03:51:10.521Z,98035.47
2023-01-12T03:53:40.140Z,98048.41
2023-01-12T03:56:11.407Z,98036.28
2023-01-12T03:58:38.869Z,98037.47
2023-01-12T04:01:06.284Z,98041.13
2023-01-12T04:03:33.496Z,98030.81
2023-01-12T04:06:00.634Z,98019.22
2023-01-12T04:08:27.715Z,98017.78
2023-01-12T04:10:54.705Z,98016.84
2023-01-12T04:13:21.572Z,98019.78
2023-01-12T04:15:48.887Z,98017.28
2023-01-12T04:18:16.090Z,98025.22
2023-01-12T04:20:43.001Z,98027.22
2023-01-12T04:23:09.925Z,98027.97
2023-01-12T04:25:37.066Z,98026.19
2023-01-12T04:28:07.214Z,98021.81
2023-01-12T04:30:35.011Z,98028.78
2023-01-12T04:33:08.183Z,98027.47
2023-01-12T04:35:35.245Z,98050.41
2023-01-12T04:38:06.260Z,98050.75
2023-01-12T04:40:33.171Z,98038.56
2023-01-12T04:43:07.992Z,98061.88
2023-01-12T04:45:41.703Z,98061.88
2023-01-12T04:48:12.166Z,98062.22
2023-01-12T04:50:40.344Z,98066.72
2023-01-12T04:53:09.669Z,98071.53
2023-01-12T04:55:37.998Z,98072.75
2023-01-12T04:58:05.020Z,98071.91
2023-01-12T05:00:31.999Z,98077.56
2023-01-12T05:03:02.367Z,98088.81
2023-01-12T05:05:32.225Z,98095.59
2023-01-12T05:08:21.344Z,98102.16
2023-01-12T05:10:52.856Z,98108.84
2023-01-12T05:13:20.535Z,98109.09
2023-01-12T05:15:47.596Z,98118.59
2023-01-12T05:18:14.778Z,98126.50
2023-01-12T05:20:41.738Z,98119.03
2023-01-12T05:23:08.618Z,98125.41
2023-01-12T05:25:35.608Z,98131.63
2023-01-12T05:28:02.579Z,98133.13
2023-01-12T05:30:31.815Z,98141.56
2023-01-12T05:32:59.132Z,98155.81
2023-01-12T05:35:26.138Z,98160.66
2023-01-12T05:37:56.173Z,98158.47
2023-01-12T05:40:23.178Z,98157.53
2023-01-12T05:43:11.158Z,98153.91
2023-01-12T05:45:38.341Z,98154.75
2023-01-12T05:48:05.509Z,98152.47
2023-01-12T05:50:32.563Z,98140.50
2023-01-12T05:53:09.520Z,98136.25
2023-01-12T05:55:40.135Z,98136.13
2023-01-12T05:58:07.071Z,98129.78
2023-01-12T06:00:33.983Z,98137.91
2023-01-12T06:03:02.971Z,98137.25
2023-01-12T06:05:30.113Z,98147.06
2023-01-12T06:07:57.916Z,98144.94
2023-01-12T06:10:24.865Z,98141.41
2023-01-12T06:13:10.452Z,98137.88
2023-01-12T06:15:37.362Z,98145.69
2023-01-12T06:18:04.449Z,98146.63
2023-01-12T06:20:31.638Z,98145.34
2023-01-12T06:23:02.506Z,98160.50
2023-01-12T06:25:30.209Z,98168.00
2023-01-12T06:27:57.171Z,98180.81
2023-01-12T06:30:25.020Z,98170.81
2023-01-12T06:32:51.980Z,98159.59
2023-01-12T06:35:19.956Z,98149.66
2023-01-12T06:37:47.313Z,98146.69
2023-01-12T06:40:15.513Z,98159.44
2023-01-12T06:42:42.700Z,98158.69
2023-01-12T06:45:10.724Z,98154.88
2023-01-12T06:47:49.467Z,98155.16
2023-01-12T06:50:16.795Z,98161.38
2023-01-12T06:52:43.844Z,98165.28
2023-01-12T06:55:10.834Z,98165.34
2023-01-12T06:57:37.847Z,98168.72
2023-01-12T07:00:06.364Z,98175.38
2023-01-12T07:02:33.411Z,98168.53
2023-01-12T07:05:00.364Z,98176.50
2023-01-12T07:07:27.589Z,98182.72
2023-01-12T07:09:54.437Z,98181.88
2023-01-12T07:12:21.385Z,98189.66
2023-01-12T07:14:48.308Z,98192.81
2023-01-12T07:17:15.458Z,98197.81
2023-01-12T07:19:43.433Z,98188.25
2023-01-12T07:22:10.364Z,98187.31
2023-01-12T07:24:37.275Z,98187.16
2023-01-12T07:27:04.181Z,98200.41
2023-01-12T07:29:31.079Z,98198.44
2023-01-12T07:31:57.964Z,98199.19
2023-01-12T07:34:24.851Z,98197.34
2023-01-12T07:36:52.020Z,98200.66
2023-01-12T07:39:19.357Z,98204.06
2023-01-12T07:42:04.895Z,98197.22
2023-01-12T07:44:31.850Z,98207.66
2023-01-12T07:46:59.801Z,98204.31
2023-01-12T07:49:27.521Z,98204.84
2023-01-12T07:51:55.332Z,98206.50
2023-01-12T07:54:23.705Z,98199.75
2023-01-12T07:56:50.685Z,98203.19
2023-01-12T07:59:17.911Z,98209.28
2023-01-12T08:01:44.897Z,98209.53
2023-01-12T08:04:11.996Z,98214.25
2023-01-12T08:06:38.897Z,98205.09
2023-01-12T08:09:05.831Z,98195.69
2023-01-12T08:11:32.829Z,98210.06
2023-01-12T08:14:01.537Z,98190.69
2023-01-12T08:16:49.782Z,98196.00
2023-01-12T08:19:23.835Z,98191.03
2023-01-12T08:21:58.741Z,98195.56
2023-01-12T08:24:32.340Z,98198.59
2023-01-12T08:27:02.152Z,98202.50
2023-01-12T08:29:34.813Z,98210.03
2023-01-12T08:32:05.094Z,98218.72
2023-01-12T08:34:40.760Z,98208.97
2023-01-12T08:37:11.953Z,98211.91
2023-01-12T08:39:39.593Z,98208.66
2023-01-12T08:42:06.905Z,98214.03
2023-01-12T08:44:36.802Z,98217.59
2023-01-12T08:47:05.728Z,98219.53
2023-01-12T08:49:34.263Z,98221.47
2023-01-12T08:52:01.278Z,98225.81
2023-01-12T08:54:28.344Z,98216.53
2023-01-12T08:56:55.311Z,98228.91
2023-01-12T08:59:22.491Z,98233.34
2023-01-12T09:01:49.577Z,98238.44
2023-01-12T09:04:17.024Z,98228.16
2023-01-12T09:06:45.483Z,98228.41
2023-01-12T09:09:14.915Z,98229.16
2023-01-12T09:11:43.508Z,98231.69
2023-01-12T09:14:14.273Z,98227.91
2023-01-12T09:16:41.951Z,98230.50
2023-01-12T09:19:10.223Z,98238.03
2023-01-12T09:21:39.438Z,98228.31
2023-01-12T09:24:06.887Z,98233.69
2023-01-12T09:26:44.325Z,98228.59
2023-01-12T09:29:12.739Z,98226.00
2023-01-12T09:31:41.982Z,98226.50
2023-01-12T09:34:09.140Z,98228.75
2023-01-12T09:36:38.222Z,98218.88
2023-01-12T09:39:09.840Z,98223.66
2023-01-12T09:42:08.349Z,98218.00
2023-01-12T10:18:20.661Z,98190.19
2023-01-12T10:20:47.557Z,98192.50
2023-01-12T10:23:24.764Z,98188.19
2023-01-12T10:26:23.263Z,98184.78
2023-01-12T10:28:53.778Z,98179.41
2023-01-12T10:31:24.309Z,98177.50
2023-01-12T10:34:08.779Z,98170.28
2023-01-12T10:36:49.329Z,98176.06
2023-01-12T10:39:35.460Z,98184.88
2023-01-12T10:42:47.145Z,98181.09
2023-01-12T10:45:16.674Z,98174.84
2023-01-12T10:47:46.061Z,98171.75
2023-01-12T10:50:28.102Z,98179.41
2023-01-12T10:53:17.537Z,98175.03
2023-01-12T10:55:45.574Z,98178.66
2023-01-12T10:58:26.292Z,98180.56
2023-01-12T11:00:54.254Z,98179.06
2023-01-12T11:03:37.445Z,98182.59
2023-01-12T11:06:31.780Z,98192.00
2023-01-12T11:08:59.469Z,98177.22
2023-01-12T11:11:32.462Z,98172.97
2023-01-12T11:14:02.602Z,98176.53
2023-01-12T11:16:42.429Z,98176.19
2023-01-12T11:19:31.743Z,98177.16
2023-01-12T11:22:11.459Z,98184.25
2023-01-12T11:24:47.620Z,98190.25
2023-01-12T11:27:21.405Z,98171.84
2023-01-12T11:30:14.791Z,98186.75
2023-01-12T11:33:09.055Z,98182.31
2023-01-12T11:35:47.078Z,98176.22
2023-01-12T11:38:16.857Z,98172.75
2023-01-12T11:40:45.227Z,98177.84
2023-01-12T11:43:39.039Z,98172.28
2023-01-12T11:46:16.638Z,98168.56
2023-01-12T11:48:59.635Z,98163.56
2023-01-12T11:51:26.712Z,98168.66
2023-01-12T11:53:53.974Z,98170.53
2023-01-12T11:56:29.405Z,98160.38
2023-01-12T11:59:15.087Z,98162.75
2023-01-12T12:02:27.084Z,98165.16
2023-01-12T12:05:06.386Z,98166.38
2023-01-12T12:07:45.315Z,98159.75
2023-01-12T12:10:32.695Z,98163.47
2023-01-12T12:13:16.068Z,98161.97
2023-01-12T12:15:56.965Z,98158.94
2023-01-12T12:18:53.654Z,98167.13
2023-01-12T12:21:49.855Z,98172.47
2023-01-12T12:24:54.660Z,98173.91
2023-01-12T12:27:58.230Z,98165.91
2023-01-12T12:30:40.123Z,98167.91
2023-01-12T12:33:50.719Z,98169.63
2023-01-12T12:36:26.501Z,98167.28
2023-01-12T12:39:15.362Z,98170.00
2023-01-12T12:42:07.032Z,98164.72
2023-01-12T12:45:06.596Z,98155.44
2023-01-12T12:48:10.282Z,98167.22
2023-01-12T12:50:44.456Z,98178.47
2023-01-12T12:53:25.133Z,98175.03
2023-01-12T12:55:53.931Z,98181.47
2023-01-12T12:58:20.753Z,98174.03
2023-01-12T13:00:49.509Z,98185.44
2023-01-12T13:03:41.044Z,98192.03
2023-01-12T13:06:16.827Z,98188.72
2023-01-12T13:08:45.485Z,98184.28
2023-01-12T13:11:12.542Z,98195.41
2023-01-12T13:13:59.183Z,98188.00
2023-01-12T13:16:26.149Z,98191.06
2023-01-12T13:18:53.048Z,98193.78
2023-01-12T13:21:56.405Z,98198.28
2023-01-12T13:24:39.743Z,98194.41
2023-01-12T13:27:47.976Z,98192.94
2023-01-12T13:30:22.975Z,98199.09
2023-01-12T13:32:57.754Z,98198.28
2023-01-12T13:35:33.912Z,98182.69
2023-01-12T13:38:22.330Z,98198.81
2023-01-12T13:40:55.638Z,98198.13
2023-01-12T13:43:34.456Z,98197.91
2023-01-12T13:46:14.714Z,98199.78
2023-01-12T13:48:49.854Z,98196.16
2023-01-12T13:51:33.097Z,98198.13
2023-01-12T13:54:07.327Z,98208.59
2023-01-12T13:56:34.533Z,98198.28
2023-01-12T13:59:03.923Z,98211.84
2023-01-12T14:01:40.444Z,98199.78
2023-01-12T14:04:20.380Z,98206.19
2023-01-12T14:07:12.073Z,98202.31
2023-01-12T14:10:00.699Z,98198.94
2023-01-12T14:12:42.936Z,98206.47
2023-01-12T14:15:31.289Z,98199.78
2023-01-12T14:18:11.730Z,98204.06
2023-01-12T14:20:47.883Z,98209.97
2023-01-12T14:23:35.020Z,98202.06
2023-01-12T14:26:10.766Z,98203.19
2023-01-12T14:28:43.799Z,98207.22
2023-01-12T14:31:16.902Z,98205.66
2023-01-12T14:33:50.646Z,98211.56
2023-01-12T14:36:23.227Z,98214.22
2023-01-12T14:38:52.039Z,98220.22
2023-01-12T14:41:41.406Z,98206.47
2023-01-12T14:44:39.370Z,98215.88
2023-01-12T14:47:06.977Z,98219.56
2023-01-12T14:49:38.325Z,98217.84
2023-01-12T14:52:17.082Z,98219.59
2023-01-12T14:54:44.470Z,98217.25
2023-01-12T14:57:37.928Z,98218.63
2023-01-12T15:00:06.080Z,98223.81
2023-01-12T15:02:39.945Z,98217.72
2023-01-12T15:05:21.739Z,98223.03
2023-01-12T15:08:03.473Z,98231.56
2023-01-12T15:10:41.028Z,98233.97
2023-01-12T15:13:26.376Z,98232.38
2023-01-12T15:16:14.052Z,98231.56
2023-01-12T15:19:00.329Z,98225.59
2023-01-12T15:21:47.106Z,98227.44
2023-01-12T15:24:43.112Z,98235.31
2023-01-12T15:27:12.529Z,98236.84
2023-01-12T15:29:39.575Z,98232.47
2023-01-12T15:32:24.729Z,98238.69
2023-01-12T15:34:54.819Z,98236.19
2023-01-12T15:37:21.857Z,98252.81
2023-01-12T15:39:48.873Z,98249.16
2023-01-12T15:42:20.097Z,98262.88
2023-01-12T15:44:51.332Z,98258.44
2023-01-12T15:47:19.603Z,98256.59
2023-01-12T15:49:48.991Z,98261.09
2023-01-12T15:52:20.579Z,98268.69
2023-01-12T15:54:48.155Z,98265.25
2023-01-12T15:57:15.574Z,98269.75
2023-01-12T15:59:43.331Z,98260.38
2023-01-12T16:02:29.377Z,98266.31
2023-01-12T16:04:56.683Z,98260.38
2023-01-12T16:07:23.644Z,98263.88
2023-01-12T16:09:50.846Z,98261.13
2023-01-12T16:12:18.581Z,98261.22
2023-01-12T16:14:45.656Z,98270.59
2023-01-12T16:17:12.618Z,98272.25
2023-01-12T16:19:42.463Z,98268.00
2023-01-12T16:22:14.407Z,98274.69
2023-01-12T16:24:41.735Z,98275.75
2023-01-12T16:27:08.767Z,98272.34
2023-01-12T16:29:35.691Z,98272.25
2023-01-12T16:32:02.767Z,98283.97
2023-01-12T16:34:29.982Z,98274.84
2023-01-12T16:36:58.022Z,98269.75
2023-01-12T16:39:27.452Z,98272.38
2023-01-12T16:42:00.402Z,98272.25
2023-01-12T16:44:27.766Z,98280.09
2023-01-12T16:46:54.716Z,98272.38
2023-01-12T16:49:21.745Z,98261.38
2023-01-12T16:51:48.767Z,98264.72
2023-01-12T16:54:15.820Z,98283.84
2023-01-12T16:56:43.004Z,98279.59
2023-01-12T16:59:10.004Z,98274.41
2023-01-12T17:01:37.125Z,98276.16
2023-01-12T17:04:04.226Z,98280.34
2023-01-12T17:06:31.312Z,98288.88
2023-01-12T17:09:02.160Z,98282.88
2023-01-12T17:11:30.812Z,98281.88
2023-01-12T17:13:58.385Z,98289.56
2023-01-12T17:16:29.591Z,98303.38
2023-01-12T17:18:56.772Z,98299.88
2023-01-12T17:21:24.663Z,98296.63
2023-01-12T17:23:52.550Z,98293.00
2023-01-12T17:26:19.841Z,98290.00
2023-01-12T17:28:47.556Z,98294.03
2023-01-12T17:31:17.561Z,98290.53
2023-01-12T17:33:45.148Z,98287.03
2023-01-12T17:36:13.153Z,98295.63
2023-01-12T17:38:40.347Z,98290.53
2023-01-12T17:41:32.427Z,98287.22
2023-01-12T17:44:01.553Z,98292.13
2023-01-12T17:46:29.059Z,98294.88
2023-01-12T17:48:59.171Z,98287.97
2023-01-12T17:51:26.685Z,98288.59
2023-01-12T17:53:57.595Z,98289.41
2023-01-12T17:56:26.269Z,98283.56
2023-01-12T17:58:54.125Z,98286.09
2023-01-12T18:01:22.747Z,98291.25
2023-01-12T18:03:49.926Z,98299.97
2023-01-12T18:06:25.841Z,98295.00
2023-01-12T18:08:56.565Z,98294.88
2023-01-12T18:11:24.286Z,98303.38
2023-01-12T18:13:51.733Z,98300.03
2023-01-12T18:16:19.287Z,98302.53
2023-01-12T18:18:47.013Z,98304.22
2023-01-12T18:21:21.181Z,98297.28
2023-01-12T18:23:49.867Z,98302.63
2023-01-12T18:26:20.500Z,98301.78
2023-01-12T18:28:48.021Z,98308.53
2023-01-12T18:31:17.746Z,98297.28
2023-01-12T18:33:46.672Z,98293.88
2023-01-12T18:36:20.112Z,98297.47
2023-01-12T18:38:49.460Z,98309.38
2023-01-12T18:41:36.284Z,98302.47
2023-01-12T18:44:06.953Z,98304.91
2023-01-12T18:46:54.219Z,98317.13
2023-01-12T18:49:23.038Z,98297.38
2023-01-12T18:52:09.132Z,98298.22
2023-01-12T18:54:56.691Z,98297.38
2023-01-12T18:57:27.043Z,98293.84
2023-01-12T18:59:57.900Z,98290.41
2023-01-12T19:02:25.247Z,98296.69
2023-01-12T19:04:52.332Z,98298.38
2023-01-12T19:07:48.020Z,98292.38
2023-01-12T19:10:15.496Z,98305.19
2023-01-12T19:12:45.933Z,98302.69
2023-01-12T19:15:32.761Z,98294.25
2023-01-12T19:18:00.801Z,98299.50
2023-01-12T19:20:31.813Z,98303.75
2023-01-12T19:23:17.404Z,98304.50
2023-01-12T19:26:02.931Z,98304.78
2023-01-12T19:28:32.949Z,98303.88
2023-01-12T19:31:10.081Z,98302.06
2023-01-12T19:33:38.109Z,98290.00
2023-01-12T19:36:07.812Z,98302.06
2023-01-12T19:38:38.740Z,98300.31
2023-01-12T19:41:33.588Z,98295.09
2023-01-12T19:44:05.871Z,98297.75
2023-01-12T19:46:33.438Z,98303.66
2023-01-12T19:49:00.581Z,98305.34
2023-01-12T19:51:27.623Z,98309.66
2023-01-12T19:53:54.578Z,98308.97
2023-01-12T19:56:22.076Z,98299.53
2023-01-12T19:58:49.021Z,98305.19
2023-01-12T20:01:23.693Z,98300.78
2023-01-12T20:03:51.202Z,98312.03
2023-01-12T20:06:18.484Z,98314.81
2023-01-12T20:08:45.438Z,98316.56
2023-01-12T20:11:12.449Z,98315.19
2023-01-12T20:13:39.488Z,98310.66
2023-01-12T20:16:08.532Z,98317.69
2023-01-12T20:18:36.152Z,98303.13
2023-01-12T20:21:08.447Z,98320.47
2023-01-12T20:23:35.743Z,98304.94
2023-01-12T20:26:07.828Z,98311.78
2023-01-12T20:28:35.925Z,98321.31
2023-01-12T20:31:09.671Z,98315.25
2023-01-12T20:33:37.051Z,98302.28
2023-01-12T20:36:04.234Z,98311.84
2023-01-12T20:38:31.150Z,98319.44
2023-01-12T20:40:58.370Z,98313.38
2023-01-12T20:43:25.776Z,98327.91
2023-01-12T20:45:52.923Z,98332.84
2023-01-12T20:48:19.956Z,98321.81
2023-01-12T20:50:47.268Z,98330.41
2023-01-12T20:53:16.456Z,98340.81
2023-01-12T20:55:50.351Z,98333.34
2023-01-12T20:58:18.204Z,98337.66
2023-01-12T21:00:45.829Z,98336.75
2023-01-12T21:03:13.088Z,98333.38
2023-01-12T21:05:47.998Z,98343.78
2023-01-12T21:08:17.374Z,98348.00
2023-01-12T21:10:52.785Z,98348.00
2023-01-12T21:13:21.193Z,98346.25
2023-01-12T21:15:48.109Z,98340.25
2023-01-12T21:18:15.091Z,98340.25
2023-01-12T21:20:43.377Z,98337.59
2023-01-12T21:23:10.727Z,98338.56
2023-01-12T21:25:44.207Z,98338.72
2023-01-12T21:28:11.817Z,98338.72
2023-01-12T21:30:39.877Z,98343.94
2023-01-12T21:33:07.049Z,98333.53
2023-01-12T21:35:34.307Z,98334.50
2023-01-12T21:38:01.436Z,98332.84
2023-01-12T21:40:28.429Z,98334.56
2023-01-12T21:43:10.664Z,98329.50
2023-01-12T21:45:51.875Z,98334.66
2023-01-12T21:48:21.252Z,98333.66
2023-01-12T21:50:48.530Z,98330.16
2023-01-12T21:53:21.246Z,98332.00
2023-01-12T21:55:59.052Z,98326.84
2023-01-12T21:58:27.561Z,98328.50
2023-01-12T22:00:54.822Z,98314.84
2023-01-12T22:03:25.853Z,98328.50
2023-01-12T22:05:53.875Z,98329.56
2023-01-12T22:08:21.427Z,98316.66
2023-01-12T22:10:48.412Z,98326.00
2023-01-12T22:13:16.974Z,98316.66
2023-01-12T22:15:45.104Z,98311.50
2023-01-12T22:18:11.994Z,98320.91
2023-01-12T22:20:40.204Z,98320.84
2023-01-12T22:23:07.650Z,98323.34
2023-01-12T22:25:34.624Z,98318.19
2023-01-12T22:28:01.674Z,98304.34
2023-01-12T22:30:29.041Z,98321.66
2023-01-12T22:32:56.361Z,98316.38
2023-01-12T22:35:23.743Z,98317.91
2023-01-12T22:37:50.688Z,98310.16
2023-01-12T22:40:17.814Z,98308.63
2023-01-12T22:43:03.164Z,98302.69
2023-01-12T22:45:30.147Z,98316.38
2023-01-12T22:47:57.165Z,98325.88
2023-01-12T22:50:24.922Z,98320.00
2023-01-12T22:52:53.132Z,98318.13
2023-01-12T22:55:24.603Z,98322.38
2023-01-12T22:57:52.115Z,98307.81
2023-01-12T23:00:20.385Z,98319.00
2023-01-12T23:03:03.114Z,98305.28
2023-01-12T23:05:36.299Z,98314.84
2023-01-12T23:08:06.916Z,98295.72
2023-01-12T23:10:34.089Z,98307.09
2023-01-12T23:13:17.805Z,98313.00
2023-01-12T23:15:49.295Z,98320.72
2023-01-12T23:18:22.166Z,98296.50
2023-01-12T23:20:49.834Z,98305.06
2023-01-12T23:23:18.276Z,98290.69
2023-01-12T23:25:47.077Z,98304.31
2023-01-12T23:28:15.271Z,98299.16
2023-01-12T23:30:42.366Z,98302.63
2023-01-12T23:33:10.293Z,98307.84
2023-01-12T23:35:39.990Z,98313.00
2023-01-12T23:38:08.527Z,98312.09
2023-01-12T23:40:35.473Z,98314.56
2023-01-12T23:43:02.455Z,98314.63
2023-01-12T23:45:29.361Z,98303.31
2023-01-12T23:47:56.324Z,98321.66
2023-01-12T23:50:23.298Z,98322.50
2023-01-12T23:52:50.734Z,98307.16
2023-01-12T23:55:18.357Z,98326.84
2023-01-12T23:57:48.301Z,98336.31
